createdAt,value
2024-03-12T00:00:17.954Z,50.13
2024-03-12T00:02:48.984Z,50.12
2024-03-12T00:05:19.741Z,50.12
2024-03-12T00:07:48.144Z,49.83
2024-03-12T00:10:16.887Z,49.86
2024-03-12T00:12:55.408Z,49.84
2024-03-12T00:15:24.509Z,49.77
2024-03-12T00:17:54.854Z,49.83
2024-03-12T00:20:31.444Z,49.87
2024-03-12T00:23:02.936Z,49.79
2024-03-12T00:25:31.893Z,49.66
2024-03-12T00:28:03.128Z,49.70
2024-03-12T00:30:32.162Z,49.51
2024-03-12T00:32:59.770Z,49.72
2024-03-12T00:35:30.151Z,49.63
2024-03-12T00:38:00.282Z,49.50
2024-03-12T00:41:14.966Z,49.59
2024-03-12T00:45:04.711Z,49.76
2024-03-12T00:48:43.472Z,49.57
2024-03-12T00:51:12.468Z,49.55
2024-03-12T00:53:40.285Z,49.54
2024-03-12T00:56:15.471Z,49.49
2024-03-12T00:59:04.007Z,49.49
2024-03-12T01:01:46.045Z,49.41
2024-03-12T01:04:12.955Z,49.27
2024-03-12T01:06:46.796Z,49.37
2024-03-12T01:09:14.656Z,49.53
2024-03-12T01:12:01.101Z,49.55
2024-03-12T01:14:31.699Z,49.54
2024-03-12T01:16:58.500Z,49.41
2024-03-12T01:19:25.293Z,49.46
2024-03-12T01:21:53.191Z,49.30
2024-03-12T01:24:22.560Z,49.44
2024-03-12T01:26:49.750Z,49.32
2024-03-12T01:29:18.990Z,49.65
2024-03-12T01:31:45.775Z,49.27
2024-03-12T01:34:14.893Z,49.34
2024-03-12T01:36:44.077Z,49.32
2024-03-12T01:39:11.138Z,49.30
2024-03-12T01:41:43.047Z,49.39
2024-03-12T01:44:10.137Z,49.28
2024-03-12T01:46:38.014Z,49.35
2024-03-12T01:49:12.157Z,49.50
2024-03-12T01:51:39.250Z,49.49
2024-03-12T01:54:10.200Z,49.34
2024-03-12T01:56:37.424Z,49.41
2024-03-12T01:59:04.552Z,49.36
2024-03-12T02:01:31.656Z,49.30
2024-03-12T02:03:58.746Z,49.28
2024-03-12T02:06:26.364Z,49.30
2024-03-12T02:08:54.408Z,49.27
2024-03-12T02:11:21.370Z,49.17
2024-03-12T02:13:52.470Z,49.05
2024-03-12T02:16:19.767Z,48.99
2024-03-12T02:18:46.585Z,48.92
2024-03-12T02:21:14.432Z,49.03
2024-03-12T02:23:43.139Z,49.00
2024-03-12T02:26:11.644Z,48.89
2024-03-12T02:28:38.830Z,49.03
2024-03-12T02:31:07.413Z,48.85
2024-03-12T02:33:34.711Z,48.83
2024-03-12T02:36:01.776Z,48.85
2024-03-12T02:38:29.876Z,48.96
2024-03-12T02:40:56.764Z,48.85
2024-03-12T02:43:23.529Z,48.90
2024-03-12T02:45:51.090Z,48.93
2024-03-12T02:48:18.048Z,48.83
2024-03-12T02:50:45.020Z,48.78
2024-03-12T02:53:12.048Z,48.75
2024-03-12T02:55:39.306Z,48.78
2024-03-12T02:58:06.368Z,48.75
2024-03-12T03:00:33.421Z,48.68
2024-03-12T03:03:01.078Z,48.78
2024-03-12T03:05:29.889Z,48.62
2024-03-12T03:07:57.555Z,48.63
2024-03-12T03:10:24.534Z,48.59
2024-03-12T03:12:52.980Z,48.48
2024-03-12T03:15:21.986Z,48.56
2024-03-12T03:17:50.175Z,48.39
2024-03-12T03:20:17.289Z,48.34
2024-03-12T03:22:44.779Z,48.30
2024-03-12T03:25:14.659Z,48.40
2024-03-12T03:27:41.987Z,48.36
2024-03-12T03:30:11.467Z,48.25
2024-03-12T03:32:38.381Z,48.22
2024-03-12T03:35:05.734Z,48.21
2024-03-12T03:37:36.350Z,48.33
2024-03-12T03:40:12.259Z,48.33
2024-03-12T03:42:40.626Z,48.35
2024-03-12T03:45:07.773Z,48.28
2024-03-12T03:47:37.789Z,48.13
2024-03-12T03:50:09.134Z,48.21
2024-03-12T03:52:39.684Z,48.16
2024-03-12T03:55:08.101Z,48.14
2024-03-12T03:57:35.262Z,48.06
2024-03-12T04:00:05.335Z,48.12
2024-03-12T04:02:34.797Z,47.91
2024-03-12T04:05:04.241Z,48.04
2024-03-12T04:07:31.113Z,49.50
2024-03-12T04:09:57.962Z,48.00
2024-03-12T04:12:26.343Z,48.12
2024-03-12T04:14:53.199Z,48.15
2024-03-12T04:17:20.784Z,48.18
2024-03-12T04:19:49.274Z,48.19
2024-03-12T04:22:17.665Z,48.26
2024-03-12T04:24:48.124Z,48.22
2024-03-12T04:27:16.408Z,48.33
2024-03-12T04:29:43.958Z,48.33
2024-03-12T04:32:13.653Z,48.45
2024-03-12T04:34:45.638Z,48.51
2024-03-12T04:37:14.140Z,48.56
2024-03-12T04:39:41.250Z,48.49
2024-03-12T04:42:08.200Z,48.53
2024-03-12T04:44:35.434Z,48.61
2024-03-12T04:47:02.186Z,48.68
2024-03-12T04:49:29.219Z,48.66
2024-03-12T04:51:56.444Z,48.71
2024-03-12T04:54:23.316Z,48.83
2024-03-12T04:56:53.250Z,48.80
2024-03-12T04:59:20.244Z,48.81
2024-03-12T05:01:49.067Z,48.87
2024-03-12T05:04:22.721Z,48.98
2024-03-12T05:06:50.859Z,49.08
2024-03-12T05:09:19.179Z,48.94
2024-03-12T05:11:47.065Z,48.64
2024-03-12T05:14:13.965Z,48.72
2024-03-12T05:16:41.027Z,48.74
2024-03-12T05:19:12.696Z,48.91
2024-03-12T05:21:39.927Z,49.14
2024-03-12T05:24:07.264Z,49.22
2024-03-12T05:26:37.714Z,49.21
2024-03-12T05:29:04.595Z,49.36
2024-03-12T05:31:33.660Z,49.33
2024-03-12T05:34:04.073Z,49.31
2024-03-12T05:36:35.491Z,49.34
2024-03-12T05:39:05.799Z,49.41
2024-03-12T05:41:50.588Z,49.42
2024-03-12T05:44:36.169Z,49.58
2024-03-12T05:47:23.278Z,49.44
2024-03-12T05:49:52.728Z,49.44
2024-03-12T05:52:20.449Z,49.63
2024-03-12T05:54:47.458Z,49.54
2024-03-12T05:57:14.306Z,49.41
2024-03-12T05:59:41.804Z,49.34
2024-03-12T06:02:09.961Z,49.10
2024-03-12T06:04:40.816Z,48.77
2024-03-12T06:07:08.235Z,48.91
2024-03-12T06:09:35.321Z,48.86
2024-03-12T06:12:56.848Z,49.11
2024-03-12T06:15:30.906Z,49.52
2024-03-12T06:17:58.619Z,49.12
2024-03-12T06:20:39.432Z,49.12
2024-03-12T06:23:14.548Z,49.33
2024-03-12T06:25:42.101Z,49.60
2024-03-12T06:28:09.499Z,49.08
2024-03-12T06:30:36.829Z,49.35
2024-03-12T06:33:04.031Z,49.10
2024-03-12T06:35:33.343Z,49.29
2024-03-12T06:38:00.262Z,49.39
2024-03-12T06:40:27.061Z,49.49
2024-03-12T06:42:53.963Z,49.54
2024-03-12T06:45:21.271Z,49.59
2024-03-12T06:47:50.281Z,49.48
2024-03-12T06:50:17.241Z,49.64
2024-03-12T06:52:48.521Z,49.25
2024-03-12T06:55:19.216Z,49.42
2024-03-12T06:57:53.894Z,49.55
2024-03-12T07:00:41.317Z,49.71
2024-03-12T07:03:08.923Z,49.76
2024-03-12T07:05:37.983Z,49.84
2024-03-12T07:08:08.951Z,50.01
2024-03-12T07:10:38.628Z,49.85
2024-03-12T07:13:09.007Z,50.03
2024-03-12T07:15:40.320Z,50.12
2024-03-12T07:18:08.933Z,50.09
2024-03-12T07:20:36.161Z,50.22
2024-03-12T07:23:03.738Z,50.09
2024-03-12T07:25:33.510Z,50.19
2024-03-12T07:28:08.019Z,50.16
2024-03-12T07:30:36.888Z,50.43
2024-03-12T07:33:04.919Z,50.48
2024-03-12T07:35:35.762Z,50.48
2024-03-12T07:38:04.653Z,50.49
2024-03-12T07:40:32.310Z,50.42
2024-03-12T07:43:01.790Z,50.53
2024-03-12T07:45:29.172Z,47.45
2024-03-12T07:47:57.518Z,47.83
2024-03-12T07:50:29.800Z,49.05
2024-03-12T07:52:59.897Z,48.63
2024-03-12T07:55:26.859Z,49.15
2024-03-12T07:57:53.943Z,48.07
2024-03-12T08:00:21.165Z,48.50
2024-03-12T08:02:48.136Z,47.51
2024-03-12T08:05:15.173Z,47.90
2024-03-12T08:07:42.535Z,48.72
2024-03-12T08:10:11.260Z,48.99
2024-03-12T08:12:41.330Z,49.25
2024-03-12T08:15:10.272Z,49.59
2024-03-12T08:17:39.218Z,49.88
2024-03-12T08:20:07.367Z,49.58
2024-03-12T08:22:37.185Z,50.17
2024-03-12T08:25:05.034Z,49.79
2024-03-12T08:27:32.248Z,49.22
2024-03-12T08:29:59.149Z,50.39
2024-03-12T08:32:26.762Z,50.84
2024-03-12T08:34:53.989Z,51.04
2024-03-12T08:37:23.770Z,50.91
2024-03-12T08:39:51.455Z,50.70
2024-03-12T08:42:18.447Z,51.30
2024-03-12T08:44:45.580Z,51.43
2024-03-12T08:47:13.299Z,51.02
2024-03-12T08:49:40.467Z,49.77
2024-03-12T08:52:07.674Z,49.72
2024-03-12T08:54:35.324Z,49.31
2024-03-12T08:57:05.755Z,49.73
2024-03-12T08:59:33.007Z,49.57
2024-03-12T09:02:01.584Z,49.46
2024-03-12T09:04:31.708Z,49.60
2024-03-12T09:06:59.535Z,50.00
2024-03-12T09:09:28.030Z,50.31
2024-03-12T09:11:57.174Z,47.50
2024-03-12T09:14:25.041Z,47.40
2024-03-12T09:16:53.070Z,48.76
2024-03-12T09:19:20.281Z,48.54
2024-03-12T09:21:47.137Z,46.74
2024-03-12T09:24:16.754Z,45.77
2024-03-12T09:26:45.483Z,44.98
2024-03-12T09:29:14.636Z,45.76
2024-03-12T09:31:43.203Z,46.10
2024-03-12T09:34:11.879Z,45.97
2024-03-12T09:36:39.291Z,45.20
2024-03-12T09:39:12.229Z,45.22
2024-03-12T09:42:02.206Z,45.34
2024-03-12T09:44:29.344Z,44.02
2024-03-12T09:46:56.395Z,44.07
2024-03-12T09:49:23.764Z,43.49
2024-03-12T09:51:52.267Z,43.19
2024-03-12T09:54:19.905Z,43.51
2024-03-12T09:56:47.170Z,42.98
2024-03-12T09:59:15.039Z,42.65
2024-03-12T10:01:43.960Z,42.78
2024-03-12T10:04:10.872Z,42.30
2024-03-12T10:06:37.880Z,42.63
2024-03-12T10:09:09.698Z,42.27
2024-03-12T10:11:36.641Z,42.42
2024-03-12T10:14:07.471Z,42.27
2024-03-12T10:16:35.794Z,41.79
2024-03-12T10:19:16.299Z,42.36
2024-03-12T10:21:46.258Z,43.09
2024-03-12T10:24:23.281Z,44.29
2024-03-12T10:26:51.566Z,45.56
2024-03-12T10:29:22.264Z,45.49
2024-03-12T10:31:49.806Z,47.03
2024-03-12T10:34:26.942Z,47.21
2024-03-12T10:36:53.963Z,47.22
2024-03-12T10:39:32.803Z,47.78
2024-03-12T10:42:01.720Z,46.61
2024-03-12T10:44:30.234Z,47.14
2024-03-12T10:47:00.369Z,47.92
2024-03-12T10:49:29.914Z,47.92
2024-03-12T10:51:59.160Z,46.50
2024-03-12T10:54:31.930Z,45.34
2024-03-12T10:57:04.547Z,44.35
2024-03-12T10:59:33.410Z,43.82
2024-03-12T11:02:00.685Z,43.63
2024-03-12T11:04:30.038Z,44.61
2024-03-12T11:07:01.977Z,46.47
2024-03-12T11:09:30.637Z,44.74
2024-03-12T11:11:58.207Z,46.27
2024-03-12T11:14:25.207Z,46.75
2024-03-12T11:16:55.841Z,47.16
2024-03-12T11:19:27.828Z,47.25
2024-03-12T11:22:02.545Z,48.47
2024-03-12T11:24:32.032Z,47.83
2024-03-12T11:27:05.345Z,48.34
2024-03-12T11:30:09.910Z,49.12
2024-03-12T11:32:41.711Z,48.39
2024-03-12T11:35:18.254Z,49.74
2024-03-12T11:37:49.035Z,50.93
2024-03-12T11:40:39.560Z,51.86
2024-03-12T11:43:39.660Z,51.65
2024-03-12T11:46:42.643Z,49.64
2024-03-12T11:49:35.854Z,49.30
2024-03-12T11:52:02.796Z,49.04
2024-03-12T11:54:44.256Z,49.20
2024-03-12T11:57:27.958Z,49.18
2024-03-12T11:59:58.459Z,48.99
2024-03-12T12:02:28.301Z,49.14
2024-03-12T12:04:57.324Z,48.88
2024-03-12T12:07:29.452Z,48.63
2024-03-12T12:09:56.660Z,48.48
2024-03-12T12:12:23.794Z,48.50
2024-03-12T12:14:51.110Z,47.83
2024-03-12T12:17:23.376Z,48.63
2024-03-12T12:20:16.219Z,48.25
2024-03-12T12:22:51.302Z,48.81
2024-03-12T12:25:22.286Z,49.47
2024-03-12T12:27:49.405Z,49.20
2024-03-12T12:30:18.587Z,49.43
2024-03-12T12:32:46.452Z,49.16
2024-03-12T12:35:15.468Z,49.43
2024-03-12T12:37:48.149Z,49.27
2024-03-12T12:40:19.026Z,49.36
2024-03-12T12:42:47.248Z,49.35
2024-03-12T12:45:15.478Z,49.18
2024-03-12T12:47:50.519Z,48.89
2024-03-12T12:50:31.387Z,49.41
2024-03-12T12:53:03.512Z,49.48
2024-03-12T12:55:33.346Z,49.21
2024-03-12T12:58:06.024Z,49.49
2024-03-12T13:00:37.588Z,49.35
2024-03-12T13:03:13.749Z,49.29
2024-03-12T13:05:42.683Z,49.40
2024-03-12T13:08:28.305Z,49.32
2024-03-12T13:11:01.469Z,49.40
2024-03-12T13:13:29.240Z,48.93
2024-03-12T13:15:56.467Z,48.51
2024-03-12T13:18:23.300Z,48.38
2024-03-12T13:20:50.934Z,48.49
2024-03-12T13:23:20.766Z,48.45
2024-03-12T13:25:47.627Z,48.36
2024-03-12T13:28:16.531Z,48.84
2024-03-12T13:30:44.362Z,47.89
2024-03-12T13:33:11.767Z,48.31
2024-03-12T13:35:41.045Z,48.08
2024-03-12T13:38:07.857Z,48.36
2024-03-12T13:40:35.133Z,48.21
2024-03-12T13:43:02.063Z,48.03
2024-03-12T13:45:30.060Z,48.06
2024-03-12T13:47:57.307Z,48.03
2024-03-12T13:50:24.650Z,48.11
2024-03-12T13:52:52.839Z,47.87
2024-03-12T13:55:20.277Z,48.02
2024-03-12T13:57:47.711Z,48.26
2024-03-12T14:00:14.992Z,48.30
2024-03-12T14:02:42.370Z,47.68
2024-03-12T14:05:10.760Z,48.58
2024-03-12T14:07:42.505Z,48.42
2024-03-12T14:10:10.338Z,48.43
2024-03-12T14:12:38.535Z,47.97
2024-03-12T14:15:06.834Z,48.01
2024-03-12T14:17:33.797Z,48.24
2024-03-12T14:20:00.814Z,48.18
2024-03-12T14:22:27.807Z,48.26
2024-03-12T14:24:54.655Z,48.29
2024-03-12T14:27:21.477Z,48.38
2024-03-12T14:29:49.317Z,48.72
2024-03-12T14:32:17.398Z,48.58
2024-03-12T14:34:45.381Z,48.53
2024-03-12T14:37:12.603Z,47.85
2024-03-12T14:39:39.595Z,47.77
2024-03-12T14:42:08.551Z,47.92
2024-03-12T14:44:36.103Z,48.10
2024-03-12T14:47:03.259Z,48.28
2024-03-12T14:49:37.823Z,48.00
2024-03-12T14:52:06.126Z,47.58
2024-03-12T14:54:33.512Z,48.09
2024-03-12T14:57:00.764Z,48.07
2024-03-12T14:59:27.665Z,48.03
2024-03-12T15:01:54.516Z,48.24
2024-03-12T15:04:22.383Z,47.94
2024-03-12T15:06:49.396Z,48.14
2024-03-12T15:09:16.554Z,48.72
2024-03-12T15:11:44.288Z,47.78
2024-03-12T15:14:11.697Z,48.49
2024-03-12T15:16:40.224Z,49.14
2024-03-12T15:19:07.173Z,48.76
2024-03-12T15:21:34.243Z,48.75
2024-03-12T15:24:02.784Z,48.05
2024-03-12T15:26:31.433Z,47.58
2024-03-12T15:28:58.335Z,47.44
2024-03-12T15:31:25.792Z,47.15
2024-03-12T15:33:53.506Z,48.03
2024-03-12T15:36:22.024Z,48.57
2024-03-12T15:38:52.948Z,48.76
2024-03-12T15:41:25.876Z,48.58
2024-03-12T15:43:55.291Z,48.53
2024-03-12T15:46:24.430Z,48.09
2024-03-12T15:48:54.341Z,48.71
2024-03-12T15:51:21.721Z,48.55
2024-03-12T15:53:58.631Z,48.72
2024-03-12T15:56:29.305Z,48.95
2024-03-12T15:58:56.957Z,49.56
2024-03-12T16:01:49.020Z,50.37
2024-03-12T16:04:16.110Z,50.72
2024-03-12T16:06:43.803Z,54.02
2024-03-12T16:09:15.614Z,54.64
2024-03-12T16:11:44.666Z,56.10
2024-03-12T16:14:17.365Z,55.41
2024-03-12T16:16:45.034Z,55.47
2024-03-12T16:19:14.804Z,55.15
2024-03-12T16:21:41.855Z,54.34
2024-03-12T16:24:08.876Z,54.54
2024-03-12T16:26:36.552Z,54.87
2024-03-12T16:29:08.318Z,54.50
2024-03-12T16:31:37.397Z,54.94
2024-03-12T16:34:14.195Z,54.69
2024-03-12T16:36:42.570Z,54.77
2024-03-12T16:39:10.454Z,55.00
2024-03-12T16:41:37.920Z,54.33
2024-03-12T16:44:10.965Z,53.78
2024-03-12T16:46:38.612Z,52.66
2024-03-12T16:49:05.528Z,54.26
2024-03-12T16:51:35.868Z,54.71
2024-03-12T16:54:03.638Z,54.00
2024-03-12T16:56:34.130Z,54.93
2024-03-12T16:59:23.652Z,55.16
2024-03-12T17:01:51.060Z,55.23
2024-03-12T17:04:18.252Z,55.07
2024-03-12T17:06:46.629Z,55.09
2024-03-12T17:09:14.058Z,55.17
2024-03-12T17:11:41.494Z,53.71
2024-03-12T17:14:14.925Z,54.53
2024-03-12T17:16:49.374Z,52.84
2024-03-12T17:19:19.561Z,53.41
2024-03-12T17:21:46.986Z,54.30
2024-03-12T17:24:16.368Z,54.68
2024-03-12T17:26:43.814Z,53.89
2024-03-12T17:29:14.321Z,53.25
2024-03-12T17:31:41.572Z,52.93
2024-03-12T17:34:11.779Z,52.94
2024-03-12T17:36:39.609Z,52.65
2024-03-12T17:39:12.370Z,52.76
2024-03-12T17:41:44.015Z,52.69
2024-03-12T17:44:11.605Z,52.87
2024-03-12T17:46:44.597Z,52.80
2024-03-12T17:49:21.279Z,52.38
2024-03-12T17:51:49.612Z,52.56
2024-03-12T17:54:17.202Z,52.57
2024-03-12T17:56:51.660Z,53.59
2024-03-12T17:59:20.594Z,56.36
2024-03-12T18:01:48.480Z,56.31
2024-03-12T18:04:16.122Z,56.49
2024-03-12T18:06:45.709Z,56.38
2024-03-12T18:09:16.042Z,56.16
2024-03-12T18:11:43.837Z,56.30
2024-03-12T18:14:13.577Z,56.26
2024-03-12T18:16:40.499Z,55.82
2024-03-12T18:19:07.727Z,56.10
2024-03-12T18:21:35.493Z,56.21
2024-03-12T18:24:05.754Z,56.04
2024-03-12T18:26:34.557Z,56.14
2024-03-12T18:29:04.484Z,55.94
2024-03-12T18:31:31.535Z,55.85
2024-03-12T18:33:59.291Z,55.67
2024-03-12T18:36:26.068Z,54.02
2024-03-12T18:38:53.344Z,54.92
2024-03-12T18:41:22.474Z,55.39
2024-03-12T18:43:49.510Z,55.68
2024-03-12T18:46:16.685Z,55.22
2024-03-12T18:48:44.388Z,55.32
2024-03-12T18:51:11.695Z,55.57
2024-03-12T18:53:41.310Z,55.45
2024-03-12T18:56:08.624Z,53.91
2024-03-12T18:58:36.090Z,55.20
2024-03-12T19:01:03.675Z,55.72
2024-03-12T19:03:51.039Z,55.44
2024-03-12T19:06:22.024Z,55.45
2024-03-12T19:08:57.102Z,55.56
2024-03-12T19:11:24.227Z,55.74
2024-03-12T19:13:52.852Z,55.78
2024-03-12T19:16:23.305Z,55.53
2024-03-12T19:18:55.242Z,55.36
2024-03-12T19:21:27.309Z,55.67
2024-03-12T19:23:56.487Z,55.59
2024-03-12T19:26:24.086Z,55.79
2024-03-12T19:28:57.003Z,55.45
2024-03-12T19:31:25.476Z,55.61
2024-03-12T19:33:53.074Z,55.74
2024-03-12T19:36:23.338Z,55.30
2024-03-12T19:38:52.717Z,54.82
2024-03-12T19:41:20.106Z,55.55
2024-03-12T19:43:47.477Z,55.20
2024-03-12T19:46:16.574Z,55.64
2024-03-12T19:48:44.503Z,55.68
2024-03-12T19:51:13.154Z,55.45
2024-03-12T19:53:41.140Z,55.11
2024-03-12T19:56:13.218Z,55.58
2024-03-12T19:58:40.798Z,55.25
2024-03-12T20:01:07.821Z,55.21
2024-03-12T20:03:35.008Z,55.42
2024-03-12T20:06:05.200Z,55.42
2024-03-12T20:08:33.583Z,55.05
2024-03-12T20:11:01.553Z,55.50
2024-03-12T20:13:28.700Z,55.34
2024-03-12T20:15:56.014Z,55.48
2024-03-12T20:18:28.250Z,55.12
2024-03-12T20:21:01.937Z,55.37
2024-03-12T20:23:31.558Z,55.36
2024-03-12T20:25:59.181Z,55.27
2024-03-12T20:28:29.002Z,55.40
2024-03-12T20:30:59.143Z,55.61
2024-03-12T20:33:28.362Z,55.49
2024-03-12T20:35:58.915Z,55.53
2024-03-12T20:38:26.025Z,55.37
2024-03-12T20:40:53.114Z,55.47
2024-03-12T20:43:22.951Z,55.34
2024-03-12T20:45:52.694Z,55.44
2024-03-12T20:48:22.671Z,55.46
2024-03-12T20:50:49.526Z,55.59
2024-03-12T20:53:16.701Z,55.60
2024-03-12T20:55:44.243Z,55.41
2024-03-12T20:58:11.050Z,55.28
2024-03-12T21:00:39.190Z,55.65
2024-03-12T21:03:10.716Z,55.44
2024-03-12T21:05:39.841Z,55.47
2024-03-12T21:08:08.436Z,55.51
2024-03-12T21:10:35.968Z,55.37
2024-03-12T21:13:03.186Z,55.38
2024-03-12T21:15:30.885Z,55.60
2024-03-12T21:18:01.782Z,55.43
2024-03-12T21:20:34.483Z,55.23
2024-03-12T21:23:05.277Z,55.33
2024-03-12T21:25:34.369Z,55.45
2024-03-12T21:28:01.235Z,55.35
2024-03-12T21:30:29.158Z,55.36
2024-03-12T21:32:57.102Z,55.15
2024-03-12T21:35:25.395Z,55.08
2024-03-12T21:37:52.919Z,55.25
2024-03-12T21:40:24.256Z,54.88
2024-03-12T21:42:51.650Z,55.24
2024-03-12T21:45:19.664Z,55.13
2024-03-12T21:47:49.402Z,55.15
2024-03-12T21:50:16.956Z,55.05
2024-03-12T21:52:44.206Z,55.17
2024-03-12T21:55:12.422Z,55.32
2024-03-12T21:57:41.209Z,55.28
2024-03-12T22:00:20.572Z,55.20
2024-03-12T22:02:48.696Z,55.22
2024-03-12T22:05:17.480Z,54.87
2024-03-12T22:07:45.212Z,55.30
2024-03-12T22:10:13.898Z,55.13
2024-03-12T22:12:42.191Z,55.14
2024-03-12T22:15:12.775Z,55.21
2024-03-12T22:17:43.005Z,54.94
2024-03-12T22:20:10.730Z,55.07
2024-03-12T22:22:40.712Z,55.01
2024-03-12T22:25:10.533Z,55.00
2024-03-12T22:27:40.121Z,54.94
2024-03-12T22:30:08.209Z,55.03
2024-03-12T22:32:35.626Z,55.09
2024-03-12T22:35:02.840Z,54.98
2024-03-12T22:37:29.979Z,54.95
2024-03-12T22:39:58.205Z,54.83
2024-03-12T22:42:26.763Z,55.00
2024-03-12T22:44:54.979Z,55.01
2024-03-12T22:47:22.414Z,54.92
2024-03-12T22:49:49.690Z,55.01
2024-03-12T22:52:19.213Z,54.91
2024-03-12T22:54:46.703Z,54.92
2024-03-12T22:57:13.872Z,54.62
2024-03-12T22:59:42.044Z,54.85
2024-03-12T23:02:10.852Z,54.85
2024-03-12T23:04:38.128Z,54.78
2024-03-12T23:07:05.433Z,54.81
2024-03-12T23:09:33.631Z,54.86
2024-03-12T23:12:02.169Z,54.67
2024-03-12T23:14:30.926Z,54.66
2024-03-12T23:16:59.711Z,54.83
2024-03-12T23:19:27.397Z,54.78
2024-03-12T23:21:55.034Z,54.77
2024-03-12T23:24:21.906Z,54.82
2024-03-12T23:26:51.220Z,54.18
2024-03-12T23:29:18.400Z,53.75
2024-03-12T23:31:46.213Z,53.63
2024-03-12T23:34:16.321Z,53.32
2024-03-12T23:36:43.394Z,53.71
2024-03-12T23:39:16.426Z,53.47
2024-03-12T23:41:46.176Z,53.40
2024-03-12T23:44:15.025Z,53.56
2024-03-12T23:46:43.343Z,53.47
2024-03-12T23:49:10.380Z,53.03
2024-03-12T23:51:37.516Z,53.36
2024-03-12T23:54:04.518Z,53.33
2024-03-12T23:56:33.521Z,53.23
2024-03-12T23:59:01.055Z,53.26
